sensor_id;sensor_type;location;lat;lon;timestamp;temperature;humidity
62555;DHT22;48610;52.144;8.624;2023-09-18T00:02:31;19.60;99.90
62555;DHT22;48610;52.144;8.624;2023-09-18T00:05:32;19.60;99.90
62555;DHT22;48610;52.144;8.624;2023-09-18T00:08:32;19.60;99.90
62555;DHT22;48610;52.144;8.624;2023-09-18T00:11:34;19.60;99.90
62555;DHT22;48610;52.144;8.624;2023-09-18T00:14:36;19.50;99.90
62555;DHT22;48610;52.144;8.624;2023-09-18T00:17:37;19.50;99.90
62555;DHT22;48610;52.144;8.624;2023-09-18T00:20:38;19.50;99.90
62555;DHT22;48610;52.144;8.624;2023-09-18T00:23:38;19.40;99.90
62555;DHT22;48610;52.144;8.624;2023-09-18T00:26:39;19.50;99.90
62555;DHT22;48610;52.144;8.624;2023-09-18T00:29:39;19.50;99.90
62555;DHT22;48610;52.144;8.624;2023-09-18T00:32:40;19.50;99.90
62555;DHT22;48610;52.144;8.624;2023-09-18T00:35:44;19.50;99.90
62555;DHT22;48610;52.144;8.624;2023-09-18T00:38:45;19.50;99.90
62555;DHT22;48610;52.144;8.624;2023-09-18T00:41:46;19.50;99.90
62555;DHT22;48610;52.144;8.624;2023-09-18T00:44:51;19.40;99.90
62555;DHT22;48610;52.144;8.624;2023-09-18T00:47:52;19.30;99.90
62555;DHT22;48610;52.144;8.624;2023-09-18T00:50:54;19.40;99.90
62555;DHT22;48610;52.144;8.624;2023-09-18T00:53:55;19.30;99.90
62555;DHT22;48610;52.144;8.624;2023-09-18T00:56:55;19.20;99.90
62555;DHT22;48610;52.144;8.624;2023-09-18T00:59:56;19.10;99.90
62555;DHT22;48610;52.144;8.624;2023-09-18T01:02:57;19.00;99.90
62555;DHT22;48610;52.144;8.624;2023-09-18T01:05:57;19.10;99.90
62555;DHT22;48610;52.144;8.624;2023-09-18T01:08:59;19.00;99.90
62555;DHT22;48610;52.144;8.624;2023-09-18T01:13:17;19.10;99.90
62555;DHT22;48610;52.144;8.624;2023-09-18T01:16:07;19.10;99.90
62555;DHT22;48610;52.144;8.624;2023-09-18T01:19:09;19.10;99.90
62555;DHT22;48610;52.144;8.624;2023-09-18T01:22:10;19.00;99.90
62555;DHT22;48610;52.144;8.624;2023-09-18T01:25:11;18.90;99.90
62555;DHT22;48610;52.144;8.624;2023-09-18T01:28:12;18.80;99.90
62555;DHT22;48610;52.144;8.624;2023-09-18T01:31:13;18.80;99.90
62555;DHT22;48610;52.144;8.624;2023-09-18T01:34:16;18.90;99.90
62555;DHT22;48610;52.144;8.624;2023-09-18T01:37:20;18.80;99.90
62555;DHT22;48610;52.144;8.624;2023-09-18T01:40:21;18.80;99.90
62555;DHT22;48610;52.144;8.624;2023-09-18T01:43:22;18.70;99.90
62555;DHT22;48610;52.144;8.624;2023-09-18T01:46:23;18.60;99.90
62555;DHT22;48610;52.144;8.624;2023-09-18T01:49:34;18.60;99.90
62555;DHT22;48610;52.144;8.624;2023-09-18T01:52:35;18.50;99.90
62555;DHT22;48610;52.144;8.624;2023-09-18T01:55:36;18.60;99.90
62555;DHT22;48610;52.144;8.624;2023-09-18T01:58:36;18.60;99.90
62555;DHT22;48610;52.144;8.624;2023-09-18T02:01:37;18.60;99.90
62555;DHT22;48610;52.144;8.624;2023-09-18T02:04:38;18.60;99.90
62555;DHT22;48610;52.144;8.624;2023-09-18T02:07:39;18.80;99.90
62555;DHT22;48610;52.144;8.624;2023-09-18T02:10:40;18.80;99.90
62555;DHT22;48610;52.144;8.624;2023-09-18T02:13:41;18.80;99.90
62555;DHT22;48610;52.144;8.624;2023-09-18T02:16:42;18.70;99.90
62555;DHT22;48610;52.144;8.624;2023-09-18T02:19:46;18.80;99.90
62555;DHT22;48610;52.144;8.624;2023-09-18T02:22:47;18.80;99.90
62555;DHT22;48610;52.144;8.624;2023-09-18T02:25:58;19.00;99.90
62555;DHT22;48610;52.144;8.624;2023-09-18T02:29:02;19.00;99.90
62555;DHT22;48610;52.144;8.624;2023-09-18T02:32:04;19.10;99.90
62555;DHT22;48610;52.144;8.624;2023-09-18T02:35:05;19.30;99.90
62555;DHT22;48610;52.144;8.624;2023-09-18T02:38:07;19.40;99.90
62555;DHT22;48610;52.144;8.624;2023-09-18T02:41:08;19.50;99.90
62555;DHT22;48610;52.144;8.624;2023-09-18T02:44:08;19.50;99.90
62555;DHT22;48610;52.144;8.624;2023-09-18T02:47:09;19.70;99.90
62555;DHT22;48610;52.144;8.624;2023-09-18T02:50:10;19.70;99.90
62555;DHT22;48610;52.144;8.624;2023-09-18T02:53:18;19.80;99.90
62555;DHT22;48610;52.144;8.624;2023-09-18T02:56:19;19.90;99.90
62555;DHT22;48610;52.144;8.624;2023-09-18T02:59:20;20.10;99.90
62555;DHT22;48610;52.144;8.624;2023-09-18T03:02:20;20.00;99.90
62555;DHT22;48610;52.144;8.624;2023-09-18T03:05:21;20.00;99.90
62555;DHT22;48610;52.144;8.624;2023-09-18T03:08:22;20.10;99.90
62555;DHT22;48610;52.144;8.624;2023-09-18T03:11:22;20.10;99.90
62555;DHT22;48610;52.144;8.624;2023-09-18T03:14:27;20.20;99.90
62555;DHT22;48610;52.144;8.624;2023-09-18T03:17:28;20.10;99.90
62555;DHT22;48610;52.144;8.624;2023-09-18T03:20:29;20.00;99.90
62555;DHT22;48610;52.144;8.624;2023-09-18T03:23:30;20.00;99.90
62555;DHT22;48610;52.144;8.624;2023-09-18T03:26:30;20.00;99.90
62555;DHT22;48610;52.144;8.624;2023-09-18T03:29:31;20.10;99.90
62555;DHT22;48610;52.144;8.624;2023-09-18T03:32:31;20.20;99.90
62555;DHT22;48610;52.144;8.624;2023-09-18T03:35:32;20.20;99.90
62555;DHT22;48610;52.144;8.624;2023-09-18T03:38:45;20.30;99.90
62555;DHT22;48610;52.144;8.624;2023-09-18T03:41:45;20.20;99.90
62555;DHT22;48610;52.144;8.624;2023-09-18T03:44:46;20.30;99.90
62555;DHT22;48610;52.144;8.624;2023-09-18T03:47:46;20.40;99.90
62555;DHT22;48610;52.144;8.624;2023-09-18T03:50:48;20.30;99.90
62555;DHT22;48610;52.144;8.624;2023-09-18T03:53:48;20.30;99.90
62555;DHT22;48610;52.144;8.624;2023-09-18T03:56:49;20.30;99.90
62555;DHT22;48610;52.144;8.624;2023-09-18T03:59:49;20.20;99.90
62555;DHT22;48610;52.144;8.624;2023-09-18T04:02:50;20.20;99.90
62555;DHT22;48610;52.144;8.624;2023-09-18T04:05:51;20.10;99.90
62555;DHT22;48610;52.144;8.624;2023-09-18T04:08:51;20.10;99.90
62555;DHT22;48610;52.144;8.624;2023-09-18T04:11:52;20.10;99.90
62555;DHT22;48610;52.144;8.624;2023-09-18T04:14:52;20.20;99.90
62555;DHT22;48610;52.144;8.624;2023-09-18T04:17:53;20.30;99.90
62555;DHT22;48610;52.144;8.624;2023-09-18T04:20:54;20.30;99.90
62555;DHT22;48610;52.144;8.624;2023-09-18T04:23:55;20.10;99.90
62555;DHT22;48610;52.144;8.624;2023-09-18T04:26:57;20.10;99.90
62555;DHT22;48610;52.144;8.624;2023-09-18T04:29:58;20.10;99.90
62555;DHT22;48610;52.144;8.624;2023-09-18T04:33:01;20.10;99.90
62555;DHT22;48610;52.144;8.624;2023-09-18T04:36:01;20.20;99.90
62555;DHT22;48610;52.144;8.624;2023-09-18T04:39:03;20.20;99.90
62555;DHT22;48610;52.144;8.624;2023-09-18T04:42:05;20.10;99.90
62555;DHT22;48610;52.144;8.624;2023-09-18T04:45:06;20.10;99.90
62555;DHT22;48610;52.144;8.624;2023-09-18T04:48:06;20.10;99.90
62555;DHT22;48610;52.144;8.624;2023-09-18T04:51:08;20.00;99.90
62555;DHT22;48610;52.144;8.624;2023-09-18T04:54:09;20.00;99.90
62555;DHT22;48610;52.144;8.624;2023-09-18T04:57:09;20.00;99.90
62555;DHT22;48610;52.144;8.624;2023-09-18T05:00:10;20.00;99.90
62555;DHT22;48610;52.144;8.624;2023-09-18T05:03:13;20.10;99.90
62555;DHT22;48610;52.144;8.624;2023-09-18T05:06:15;20.00;99.90
62555;DHT22;48610;52.144;8.624;2023-09-18T05:09:15;20.10;99.90
62555;DHT22;48610;52.144;8.624;2023-09-18T05:12:16;20.10;99.90
62555;DHT22;48610;52.144;8.624;2023-09-18T05:15:17;20.10;99.90
62555;DHT22;48610;52.144;8.624;2023-09-18T05:18:17;20.10;99.90
62555;DHT22;48610;52.144;8.624;2023-09-18T05:21:18;20.10;99.90
62555;DHT22;48610;52.144;8.624;2023-09-18T05:24:22;20.20;99.90
62555;DHT22;48610;52.144;8.624;2023-09-18T05:27:27;20.30;99.90
62555;DHT22;48610;52.144;8.624;2023-09-18T05:30:30;20.30;99.90
62555;DHT22;48610;52.144;8.624;2023-09-18T05:33:34;20.20;99.90
62555;DHT22;48610;52.144;8.624;2023-09-18T05:36:35;20.30;99.90
62555;DHT22;48610;52.144;8.624;2023-09-18T05:39:35;20.30;99.90
62555;DHT22;48610;52.144;8.624;2023-09-18T05:42:40;20.30;99.90
62555;DHT22;48610;52.144;8.624;2023-09-18T05:45:43;19.80;99.90
62555;DHT22;48610;52.144;8.624;2023-09-18T05:48:44;19.70;99.90
62555;DHT22;48610;52.144;8.624;2023-09-18T05:51:44;19.60;99.90
62555;DHT22;48610;52.144;8.624;2023-09-18T05:54:47;19.50;99.90
62555;DHT22;48610;52.144;8.624;2023-09-18T05:57:48;19.60;99.90
62555;DHT22;48610;52.144;8.624;2023-09-18T06:00:48;19.60;99.90
62555;DHT22;48610;52.144;8.624;2023-09-18T06:03:49;19.60;99.90
62555;DHT22;48610;52.144;8.624;2023-09-18T06:06:50;19.60;99.90
62555;DHT22;48610;52.144;8.624;2023-09-18T06:09:51;19.70;99.90
62555;DHT22;48610;52.144;8.624;2023-09-18T06:12:52;19.70;99.90
62555;DHT22;48610;52.144;8.624;2023-09-18T06:15:53;19.70;99.90
62555;DHT22;48610;52.144;8.624;2023-09-18T06:18:56;19.70;99.90
62555;DHT22;48610;52.144;8.624;2023-09-18T06:21:56;19.60;99.90
62555;DHT22;48610;52.144;8.624;2023-09-18T06:24:57;19.80;99.90
62555;DHT22;48610;52.144;8.624;2023-09-18T06:27:57;19.80;99.90
62555;DHT22;48610;52.144;8.624;2023-09-18T06:30:58;19.80;99.90
62555;DHT22;48610;52.144;8.624;2023-09-18T06:33:59;19.70;99.90
62555;DHT22;48610;52.144;8.624;2023-09-18T06:36:59;19.70;99.90
62555;DHT22;48610;52.144;8.624;2023-09-18T06:40:00;19.70;99.90
62555;DHT22;48610;52.144;8.624;2023-09-18T06:43:04;19.60;99.90
62555;DHT22;48610;52.144;8.624;2023-09-18T06:46:07;19.80;99.90
62555;DHT22;48610;52.144;8.624;2023-09-18T06:49:08;19.90;99.90
62555;DHT22;48610;52.144;8.624;2023-09-18T06:52:09;20.00;99.90
62555;DHT22;48610;52.144;8.624;2023-09-18T06:55:10;20.10;99.90
62555;DHT22;48610;52.144;8.624;2023-09-18T06:58:10;20.10;99.90
62555;DHT22;48610;52.144;8.624;2023-09-18T07:01:11;20.20;99.90
62555;DHT22;48610;52.144;8.624;2023-09-18T07:04:12;20.20;99.90
62555;DHT22;48610;52.144;8.624;2023-09-18T07:07:13;20.20;99.90
62555;DHT22;48610;52.144;8.624;2023-09-18T07:10:14;20.20;99.90
62555;DHT22;48610;52.144;8.624;2023-09-18T07:13:15;20.20;99.90
62555;DHT22;48610;52.144;8.624;2023-09-18T07:16:15;20.20;99.90
62555;DHT22;48610;52.144;8.624;2023-09-18T07:19:16;20.30;99.90
62555;DHT22;48610;52.144;8.624;2023-09-18T07:22:17;20.50;99.90
62555;DHT22;48610;52.144;8.624;2023-09-18T07:25:18;20.40;99.90
62555;DHT22;48610;52.144;8.624;2023-09-18T07:28:18;20.30;99.90
62555;DHT22;48610;52.144;8.624;2023-09-18T07:31:20;20.50;99.90
62555;DHT22;48610;52.144;8.624;2023-09-18T07:34:20;20.60;99.90
62555;DHT22;48610;52.144;8.624;2023-09-18T07:37:21;20.70;99.90
62555;DHT22;48610;52.144;8.624;2023-09-18T07:40:22;20.90;99.90
62555;DHT22;48610;52.144;8.624;2023-09-18T07:43:24;21.10;99.90
62555;DHT22;48610;52.144;8.624;2023-09-18T07:46:26;21.40;99.90
62555;DHT22;48610;52.144;8.624;2023-09-18T07:49:26;21.70;99.90
62555;DHT22;48610;52.144;8.624;2023-09-18T07:52:28;21.90;99.90
62555;DHT22;48610;52.144;8.624;2023-09-18T07:55:28;22.00;99.90
62555;DHT22;48610;52.144;8.624;2023-09-18T07:58:30;22.00;99.90
62555;DHT22;48610;52.144;8.624;2023-09-18T08:01:31;22.00;99.90
62555;DHT22;48610;52.144;8.624;2023-09-18T08:04:32;22.00;99.90
62555;DHT22;48610;52.144;8.624;2023-09-18T08:07:35;22.10;99.90
62555;DHT22;48610;52.144;8.624;2023-09-18T08:10:39;22.00;99.90
62555;DHT22;48610;52.144;8.624;2023-09-18T08:13:41;21.90;99.90
62555;DHT22;48610;52.144;8.624;2023-09-18T08:16:41;21.80;99.90
62555;DHT22;48610;52.144;8.624;2023-09-18T08:19:43;21.90;99.90
62555;DHT22;48610;52.144;8.624;2023-09-18T08:22:44;21.80;99.90
62555;DHT22;48610;52.144;8.624;2023-09-18T08:25:46;21.80;99.90
62555;DHT22;48610;52.144;8.624;2023-09-18T08:28:47;21.80;99.90
62555;DHT22;48610;52.144;8.624;2023-09-18T08:31:48;21.80;99.90
62555;DHT22;48610;52.144;8.624;2023-09-18T08:34:49;21.70;99.90
62555;DHT22;48610;52.144;8.624;2023-09-18T08:37:50;21.70;99.90
62555;DHT22;48610;52.144;8.624;2023-09-18T08:40:54;21.70;99.90
62555;DHT22;48610;52.144;8.624;2023-09-18T08:44:01;21.60;99.90
62555;DHT22;48610;52.144;8.624;2023-09-18T08:47:05;21.60;99.90
62555;DHT22;48610;52.144;8.624;2023-09-18T08:50:08;21.60;99.90
62555;DHT22;48610;52.144;8.624;2023-09-18T08:53:09;21.60;99.90
62555;DHT22;48610;52.144;8.624;2023-09-18T08:56:10;21.60;99.90
62555;DHT22;48610;52.144;8.624;2023-09-18T08:59:13;21.50;99.90
62555;DHT22;48610;52.144;8.624;2023-09-18T09:02:17;21.60;99.90
62555;DHT22;48610;52.144;8.624;2023-09-18T09:05:17;21.50;99.90
62555;DHT22;48610;52.144;8.624;2023-09-18T09:08:18;21.60;99.90
62555;DHT22;48610;52.144;8.624;2023-09-18T09:11:19;21.60;99.90
62555;DHT22;48610;52.144;8.624;2023-09-18T09:14:20;21.50;99.90
62555;DHT22;48610;52.144;8.624;2023-09-18T09:17:39;21.60;99.90
62555;DHT22;48610;52.144;8.624;2023-09-18T09:20:39;21.50;99.90
62555;DHT22;48610;52.144;8.624;2023-09-18T09:26:57;21.50;99.90
62555;DHT22;48610;52.144;8.624;2023-09-18T09:29:59;21.70;99.90
62555;DHT22;48610;52.144;8.624;2023-09-18T09:33:00;21.80;99.90
62555;DHT22;48610;52.144;8.624;2023-09-18T09:36:04;21.80;99.90
62555;DHT22;48610;52.144;8.624;2023-09-18T09:39:05;21.70;99.90
62555;DHT22;48610;52.144;8.624;2023-09-18T09:42:06;21.70;99.90
62555;DHT22;48610;52.144;8.624;2023-09-18T09:45:15;21.70;99.90
62555;DHT22;48610;52.144;8.624;2023-09-18T09:48:18;21.90;99.90
62555;DHT22;48610;52.144;8.624;2023-09-18T09:51:19;21.80;99.90
62555;DHT22;48610;52.144;8.624;2023-09-18T09:54:32;21.90;99.90
62555;DHT22;48610;52.144;8.624;2023-09-18T09:57:47;21.90;99.90
62555;DHT22;48610;52.144;8.624;2023-09-18T10:00:51;21.90;99.90
62555;DHT22;48610;52.144;8.624;2023-09-18T10:03:55;21.80;99.90
62555;DHT22;48610;52.144;8.624;2023-09-18T10:07:06;21.80;99.90
62555;DHT22;48610;52.144;8.624;2023-09-18T10:10:07;21.70;99.90
62555;DHT22;48610;52.144;8.624;2023-09-18T10:13:12;21.60;99.90
62555;DHT22;48610;52.144;8.624;2023-09-18T10:16:14;21.60;99.90
62555;DHT22;48610;52.144;8.624;2023-09-18T10:20:22;21.60;99.90
62555;DHT22;48610;52.144;8.624;2023-09-18T10:22:56;21.60;99.90
62555;DHT22;48610;52.144;8.624;2023-09-18T10:26:01;21.70;99.90
62555;DHT22;48610;52.144;8.624;2023-09-18T10:29:04;21.80;99.90
62555;DHT22;48610;52.144;8.624;2023-09-18T10:32:09;21.90;99.90
62555;DHT22;48610;52.144;8.624;2023-09-18T10:35:10;21.90;99.90
62555;DHT22;48610;52.144;8.624;2023-09-18T10:38:12;21.90;99.90
62555;DHT22;48610;52.144;8.624;2023-09-18T10:41:16;22.00;99.90
62555;DHT22;48610;52.144;8.624;2023-09-18T10:44:19;21.80;99.90
62555;DHT22;48610;52.144;8.624;2023-09-18T10:47:20;21.80;99.90
62555;DHT22;48610;52.144;8.624;2023-09-18T10:50:26;22.00;99.90
62555;DHT22;48610;52.144;8.624;2023-09-18T10:53:27;22.00;99.90
62555;DHT22;48610;52.144;8.624;2023-09-18T10:56:27;22.10;99.90
62555;DHT22;48610;52.144;8.624;2023-09-18T10:59:28;22.10;99.90
62555;DHT22;48610;52.144;8.624;2023-09-18T11:02:30;22.00;99.90
62555;DHT22;48610;52.144;8.624;2023-09-18T11:05:33;22.10;99.90
62555;DHT22;48610;52.144;8.624;2023-09-18T11:08:35;22.00;99.90
62555;DHT22;48610;52.144;8.624;2023-09-18T11:11:44;22.00;99.90
62555;DHT22;48610;52.144;8.624;2023-09-18T11:14:58;22.00;99.90
62555;DHT22;48610;52.144;8.624;2023-09-18T11:18:02;21.90;99.90
62555;DHT22;48610;52.144;8.624;2023-09-18T11:21:11;21.90;99.90
62555;DHT22;48610;52.144;8.624;2023-09-18T11:24:20;21.80;99.90
62555;DHT22;48610;52.144;8.624;2023-09-18T11:27:24;21.90;99.90
62555;DHT22;48610;52.144;8.624;2023-09-18T11:30:25;22.00;99.90
62555;DHT22;48610;52.144;8.624;2023-09-18T11:33:42;21.90;99.90
62555;DHT22;48610;52.144;8.624;2023-09-18T11:36:46;22.10;99.90
62555;DHT22;48610;52.144;8.624;2023-09-18T11:39:47;22.10;99.90
62555;DHT22;48610;52.144;8.624;2023-09-18T11:43:23;22.00;99.90
62555;DHT22;48610;52.144;8.624;2023-09-18T11:46:25;22.00;99.90
62555;DHT22;48610;52.144;8.624;2023-09-18T11:49:30;22.30;99.90
62555;DHT22;48610;52.144;8.624;2023-09-18T11:52:34;22.60;99.90
62555;DHT22;48610;52.144;8.624;2023-09-18T11:55:37;22.80;99.90
62555;DHT22;48610;52.144;8.624;2023-09-18T11:58:48;23.40;99.90
62555;DHT22;48610;52.144;8.624;2023-09-18T12:01:53;23.80;99.90
62555;DHT22;48610;52.144;8.624;2023-09-18T12:04:54;23.90;99.90
62555;DHT22;48610;52.144;8.624;2023-09-18T12:07:55;23.70;99.90
62555;DHT22;48610;52.144;8.624;2023-09-18T12:10:56;23.70;99.90
62555;DHT22;48610;52.144;8.624;2023-09-18T12:13:56;23.80;99.90
62555;DHT22;48610;52.144;8.624;2023-09-18T12:17:02;23.20;99.90
62555;DHT22;48610;52.144;8.624;2023-09-18T12:20:04;22.80;99.90
62555;DHT22;48610;52.144;8.624;2023-09-18T12:23:07;22.70;99.90
62555;DHT22;48610;52.144;8.624;2023-09-18T12:26:09;22.80;99.90
62555;DHT22;48610;52.144;8.624;2023-09-18T12:29:10;22.90;99.90
62555;DHT22;48610;52.144;8.624;2023-09-18T12:32:12;22.80;99.90
62555;DHT22;48610;52.144;8.624;2023-09-18T12:35:14;22.90;99.90
62555;DHT22;48610;52.144;8.624;2023-09-18T12:38:18;22.70;99.90
62555;DHT22;48610;52.144;8.624;2023-09-18T12:41:27;22.80;99.90
62555;DHT22;48610;52.144;8.624;2023-09-18T12:44:28;22.70;99.90
62555;DHT22;48610;52.144;8.624;2023-09-18T12:47:29;22.70;99.90
62555;DHT22;48610;52.144;8.624;2023-09-18T12:50:29;22.80;99.90
62555;DHT22;48610;52.144;8.624;2023-09-18T12:53:31;23.00;99.90
62555;DHT22;48610;52.144;8.624;2023-09-18T12:56:32;23.20;99.90
62555;DHT22;48610;52.144;8.624;2023-09-18T12:59:34;23.20;99.90
62555;DHT22;48610;52.144;8.624;2023-09-18T13:02:37;23.30;99.90
62555;DHT22;48610;52.144;8.624;2023-09-18T13:05:38;23.60;99.90
62555;DHT22;48610;52.144;8.624;2023-09-18T13:08:39;23.90;99.90
62555;DHT22;48610;52.144;8.624;2023-09-18T13:11:52;24.60;99.90
62555;DHT22;48610;52.144;8.624;2023-09-18T13:15:03;24.20;99.90
62555;DHT22;48610;52.144;8.624;2023-09-18T13:18:12;24.40;99.90
62555;DHT22;48610;52.144;8.624;2023-09-18T13:21:13;24.10;99.90
62555;DHT22;48610;52.144;8.624;2023-09-18T13:24:27;24.10;99.90
62555;DHT22;48610;52.144;8.624;2023-09-18T13:27:29;24.30;99.90
62555;DHT22;48610;52.144;8.624;2023-09-18T13:30:30;24.40;99.90
62555;DHT22;48610;52.144;8.624;2023-09-18T13:33:32;24.40;99.90
62555;DHT22;48610;52.144;8.624;2023-09-18T13:36:33;24.10;99.90
62555;DHT22;48610;52.144;8.624;2023-09-18T13:39:33;24.30;99.90
62555;DHT22;48610;52.144;8.624;2023-09-18T13:42:38;24.20;99.90
62555;DHT22;48610;52.144;8.624;2023-09-18T13:45:40;24.40;99.90
62555;DHT22;48610;52.144;8.624;2023-09-18T13:48:41;24.50;99.90
62555;DHT22;48610;52.144;8.624;2023-09-18T13:51:41;24.40;99.90
62555;DHT22;48610;52.144;8.624;2023-09-18T13:54:42;24.50;99.90
62555;DHT22;48610;52.144;8.624;2023-09-18T13:57:43;24.90;99.90
62555;DHT22;48610;52.144;8.624;2023-09-18T14:00:43;24.90;99.90
62555;DHT22;48610;52.144;8.624;2023-09-18T14:03:44;24.60;99.90
62555;DHT22;48610;52.144;8.624;2023-09-18T14:06:45;24.40;99.90
62555;DHT22;48610;52.144;8.624;2023-09-18T14:09:46;24.30;99.90
62555;DHT22;48610;52.144;8.624;2023-09-18T14:12:47;24.20;99.90
62555;DHT22;48610;52.144;8.624;2023-09-18T14:15:47;24.20;99.90
62555;DHT22;48610;52.144;8.624;2023-09-18T14:18:48;24.00;99.90
62555;DHT22;48610;52.144;8.624;2023-09-18T14:21:48;23.80;99.90
62555;DHT22;48610;52.144;8.624;2023-09-18T14:24:52;23.80;99.90
62555;DHT22;48610;52.144;8.624;2023-09-18T14:27:53;23.60;99.90
62555;DHT22;48610;52.144;8.624;2023-09-18T14:30:54;23.50;99.90
62555;DHT22;48610;52.144;8.624;2023-09-18T14:33:54;23.30;99.90
62555;DHT22;48610;52.144;8.624;2023-09-18T14:36:56;23.00;99.90
62555;DHT22;48610;52.144;8.624;2023-09-18T14:39:56;22.80;99.90
62555;DHT22;48610;52.144;8.624;2023-09-18T14:42:57;22.70;99.90
62555;DHT22;48610;52.144;8.624;2023-09-18T14:45:58;22.40;99.90
62555;DHT22;48610;52.144;8.624;2023-09-18T14:48:59;22.50;99.90
62555;DHT22;48610;52.144;8.624;2023-09-18T14:52:01;22.60;99.90
62555;DHT22;48610;52.144;8.624;2023-09-18T14:55:01;23.00;99.90
62555;DHT22;48610;52.144;8.624;2023-09-18T14:58:03;23.40;99.90
62555;DHT22;48610;52.144;8.624;2023-09-18T15:01:05;23.10;99.90
62555;DHT22;48610;52.144;8.624;2023-09-18T15:04:07;23.20;99.90
62555;DHT22;48610;52.144;8.624;2023-09-18T15:07:09;23.20;99.90
62555;DHT22;48610;52.144;8.624;2023-09-18T15:10:11;23.20;99.90
62555;DHT22;48610;52.144;8.624;2023-09-18T15:13:12;23.20;99.90
62555;DHT22;48610;52.144;8.624;2023-09-18T15:16:14;22.80;99.90
62555;DHT22;48610;52.144;8.624;2023-09-18T15:19:15;22.80;99.90
62555;DHT22;48610;52.144;8.624;2023-09-18T15:22:17;22.70;99.90
62555;DHT22;48610;52.144;8.624;2023-09-18T15:25:17;22.90;99.90
62555;DHT22;48610;52.144;8.624;2023-09-18T15:28:18;22.70;99.90
62555;DHT22;48610;52.144;8.624;2023-09-18T15:31:19;22.70;99.90
62555;DHT22;48610;52.144;8.624;2023-09-18T15:34:20;22.80;99.90
62555;DHT22;48610;52.144;8.624;2023-09-18T15:37:20;22.60;99.90
62555;DHT22;48610;52.144;8.624;2023-09-18T15:40:21;22.60;99.90
62555;DHT22;48610;52.144;8.624;2023-09-18T15:43:25;22.70;99.90
62555;DHT22;48610;52.144;8.624;2023-09-18T15:46:26;22.90;99.90
62555;DHT22;48610;52.144;8.624;2023-09-18T15:49:27;22.80;99.90
62555;DHT22;48610;52.144;8.624;2023-09-18T15:52:27;22.70;99.90
62555;DHT22;48610;52.144;8.624;2023-09-18T15:55:28;22.80;99.90
62555;DHT22;48610;52.144;8.624;2023-09-18T15:58:28;22.70;99.90
62555;DHT22;48610;52.144;8.624;2023-09-18T16:01:29;22.80;99.90
62555;DHT22;48610;52.144;8.624;2023-09-18T16:04:30;22.60;99.90
62555;DHT22;48610;52.144;8.624;2023-09-18T16:07:32;22.50;99.90
62555;DHT22;48610;52.144;8.624;2023-09-18T16:10:33;22.40;99.90
62555;DHT22;48610;52.144;8.624;2023-09-18T16:13:33;22.40;99.90
62555;DHT22;48610;52.144;8.624;2023-09-18T16:16:34;22.30;99.90
62555;DHT22;48610;52.144;8.624;2023-09-18T16:19:35;22.20;99.90
62555;DHT22;48610;52.144;8.624;2023-09-18T16:22:36;22.20;99.90
62555;DHT22;48610;52.144;8.624;2023-09-18T16:25:36;22.30;99.90
62555;DHT22;48610;52.144;8.624;2023-09-18T16:28:37;22.30;99.90
62555;DHT22;48610;52.144;8.624;2023-09-18T16:31:38;22.40;99.90
62555;DHT22;48610;52.144;8.624;2023-09-18T16:34:38;22.40;99.90
62555;DHT22;48610;52.144;8.624;2023-09-18T16:37:39;22.70;99.90
62555;DHT22;48610;52.144;8.624;2023-09-18T16:40:41;22.70;99.90
62555;DHT22;48610;52.144;8.624;2023-09-18T16:43:42;22.60;99.90
62555;DHT22;48610;52.144;8.624;2023-09-18T16:46:42;22.30;99.90
62555;DHT22;48610;52.144;8.624;2023-09-18T16:49:43;22.10;99.90
62555;DHT22;48610;52.144;8.624;2023-09-18T16:52:44;22.20;99.90
62555;DHT22;48610;52.144;8.624;2023-09-18T16:55:46;22.20;99.90
62555;DHT22;48610;52.144;8.624;2023-09-18T16:58:47;22.10;99.90
62555;DHT22;48610;52.144;8.624;2023-09-18T17:01:47;22.20;99.90
62555;DHT22;48610;52.144;8.624;2023-09-18T17:04:48;22.20;99.90
62555;DHT22;48610;52.144;8.624;2023-09-18T17:07:49;22.30;99.90
62555;DHT22;48610;52.144;8.624;2023-09-18T17:10:50;22.30;99.90
62555;DHT22;48610;52.144;8.624;2023-09-18T17:13:51;22.20;99.90
62555;DHT22;48610;52.144;8.624;2023-09-18T17:16:52;22.10;99.90
62555;DHT22;48610;52.144;8.624;2023-09-18T17:19:52;22.00;99.90
62555;DHT22;48610;52.144;8.624;2023-09-18T17:22:53;22.00;99.90
62555;DHT22;48610;52.144;8.624;2023-09-18T17:25:54;21.90;99.90
62555;DHT22;48610;52.144;8.624;2023-09-18T17:28:54;21.90;99.90
62555;DHT22;48610;52.144;8.624;2023-09-18T17:31:56;21.80;99.90
62555;DHT22;48610;52.144;8.624;2023-09-18T17:34:56;21.70;99.90
62555;DHT22;48610;52.144;8.624;2023-09-18T17:37:58;21.70;99.90
62555;DHT22;48610;52.144;8.624;2023-09-18T17:40:59;21.80;99.90
62555;DHT22;48610;52.144;8.624;2023-09-18T17:43:59;21.70;99.90
62555;DHT22;48610;52.144;8.624;2023-09-18T17:47:02;21.60;99.90
62555;DHT22;48610;52.144;8.624;2023-09-18T17:50:03;21.50;99.90
62555;DHT22;48610;52.144;8.624;2023-09-18T17:53:04;21.60;99.90
62555;DHT22;48610;52.144;8.624;2023-09-18T17:56:05;21.50;99.90
62555;DHT22;48610;52.144;8.624;2023-09-18T17:59:06;21.50;99.90
62555;DHT22;48610;52.144;8.624;2023-09-18T18:02:07;21.40;99.90
62555;DHT22;48610;52.144;8.624;2023-09-18T18:05:08;21.40;99.90
62555;DHT22;48610;52.144;8.624;2023-09-18T18:08:10;21.30;99.90
62555;DHT22;48610;52.144;8.624;2023-09-18T18:11:11;21.40;99.90
62555;DHT22;48610;52.144;8.624;2023-09-18T18:14:14;21.30;99.90
62555;DHT22;48610;52.144;8.624;2023-09-18T18:17:15;21.20;99.90
62555;DHT22;48610;52.144;8.624;2023-09-18T18:20:16;21.20;99.90
62555;DHT22;48610;52.144;8.624;2023-09-18T18:23:17;21.20;99.90
62555;DHT22;48610;52.144;8.624;2023-09-18T18:26:19;21.20;99.90
62555;DHT22;48610;52.144;8.624;2023-09-18T18:29:21;21.00;99.90
62555;DHT22;48610;52.144;8.624;2023-09-18T18:32:21;21.00;99.90
62555;DHT22;48610;52.144;8.624;2023-09-18T18:35:22;20.90;99.90
62555;DHT22;48610;52.144;8.624;2023-09-18T18:38:23;20.90;99.90
62555;DHT22;48610;52.144;8.624;2023-09-18T18:41:24;21.00;99.90
62555;DHT22;48610;52.144;8.624;2023-09-18T18:44:25;21.00;99.90
62555;DHT22;48610;52.144;8.624;2023-09-18T18:47:26;21.10;99.90
62555;DHT22;48610;52.144;8.624;2023-09-18T18:50:27;21.20;99.90
62555;DHT22;48610;52.144;8.624;2023-09-18T18:53:28;21.50;99.90
62555;DHT22;48610;52.144;8.624;2023-09-18T18:56:30;21.40;99.90
62555;DHT22;48610;52.144;8.624;2023-09-18T18:59:30;21.50;99.90
62555;DHT22;48610;52.144;8.624;2023-09-18T19:02:31;21.40;99.90
62555;DHT22;48610;52.144;8.624;2023-09-18T19:05:32;21.40;99.90
62555;DHT22;48610;52.144;8.624;2023-09-18T19:08:34;21.30;99.90
62555;DHT22;48610;52.144;8.624;2023-09-18T19:11:34;21.40;99.90
62555;DHT22;48610;52.144;8.624;2023-09-18T19:14:35;21.50;99.90